createdAt,value
2018-04-17T00:00:34.608Z,7.20
2018-04-17T00:01:34.597Z,7.70
2018-04-17T00:02:34.586Z,6.50
2018-04-17T00:03:34.575Z,7.90
2018-04-17T00:04:34.567Z,6.90
2018-04-17T00:05:34.558Z,7.30
2018-04-17T00:06:34.546Z,7.80
2018-04-17T00:07:34.543Z,7.60
2018-04-17T00:08:34.534Z,8.90
2018-04-17T00:09:34.519Z,6.80
2018-04-17T00:10:34.508Z,6.90
2018-04-17T00:11:34.495Z,7.90
2018-04-17T00:12:34.486Z,6.60
2018-04-17T00:13:34.476Z,7.70
2018-04-17T00:14:34.474Z,7.70
2018-04-17T00:15:34.705Z,8.50
2018-04-17T00:16:34.462Z,9.50
2018-04-17T00:17:34.440Z,6.80
2018-04-17T00:18:34.431Z,6.90
2018-04-17T00:19:34.416Z,9.70
2018-04-17T00:20:34.407Z,9.60
2018-04-17T00:21:34.400Z,9.70
2018-04-17T00:22:34.385Z,8.30
2018-04-17T00:23:34.375Z,8.60
2018-04-17T00:24:34.366Z,9.70
2018-04-17T00:25:34.360Z,9.20
2018-04-17T00:26:34.350Z,8.20
2018-04-17T00:27:34.336Z,8.40
2018-04-17T00:28:34.328Z,9.00
2018-04-17T00:29:34.319Z,8.60
2018-04-17T00:30:34.314Z,8.30
2018-04-17T00:31:34.298Z,9.40
2018-04-17T00:32:34.281Z,9.50
2018-04-17T00:33:34.274Z,8.30
2018-04-17T00:34:34.262Z,9.70
2018-04-17T00:35:34.259Z,10.90
2018-04-17T00:36:34.241Z,8.40
2018-04-17T00:37:34.230Z,9.20
2018-04-17T00:38:34.221Z,9.60
2018-04-17T00:39:34.209Z,9.00
2018-04-17T00:40:34.199Z,8.50
2018-04-17T00:41:34.190Z,9.40
2018-04-17T00:42:34.186Z,10.40
2018-04-17T00:43:34.174Z,9.20
2018-04-17T00:44:34.159Z,8.60
2018-04-17T00:45:34.148Z,8.10
2018-04-17T00:46:34.145Z,9.60
2018-04-17T00:47:34.133Z,7.30
2018-04-17T00:48:34.117Z,7.70
2018-04-17T00:49:34.109Z,8.70
2018-04-17T00:50:34.098Z,8.50
2018-04-17T00:51:34.090Z,9.30
2018-04-17T00:52:34.077Z,8.50
2018-04-17T00:53:34.079Z,8.70
2018-04-17T00:54:34.060Z,9.40
2018-04-17T00:55:34.047Z,7.60
2018-04-17T00:56:34.039Z,7.90
2018-04-17T00:57:34.033Z,8.10
2018-04-17T00:58:34.026Z,7.60
2018-04-17T00:59:34.004Z,8.20
2018-04-17T01:00:34.001Z,8.00
2018-04-17T01:01:33.984Z,8.50
2018-04-17T01:02:33.975Z,7.10
2018-04-17T01:03:33.963Z,8.30
2018-04-17T01:04:33.953Z,6.50
2018-04-17T01:05:33.946Z,8.30
2018-04-17T01:06:33.939Z,8.90
2018-04-17T01:07:33.930Z,6.10
2018-04-17T01:08:33.916Z,7.00
2018-04-17T01:09:33.908Z,8.40
2018-04-17T01:10:33.890Z,8.60
2018-04-17T01:11:33.879Z,8.10
2018-04-17T01:12:33.875Z,10.20
2018-04-17T01:13:33.860Z,7.80
2018-04-17T01:14:33.848Z,6.60
2018-04-17T01:15:33.845Z,6.80
2018-04-17T01:16:33.827Z,8.00
2018-04-17T01:17:33.819Z,6.70
2018-04-17T01:18:33.812Z,6.70
2018-04-17T01:19:33.800Z,8.60
2018-04-17T01:20:33.788Z,7.70
2018-04-17T01:21:33.775Z,6.60
2018-04-17T01:22:33.766Z,8.30
2018-04-17T01:23:33.752Z,8.10
2018-04-17T01:24:33.748Z,8.90
2018-04-17T01:25:33.732Z,8.00
2018-04-17T01:26:33.721Z,9.90
2018-04-17T01:27:33.709Z,7.70
2018-04-17T01:28:33.698Z,7.30
2018-04-17T01:29:33.698Z,6.90
2018-04-17T01:30:33.685Z,8.10
2018-04-17T01:31:33.668Z,6.90
2018-04-17T01:32:33.664Z,6.90
2018-04-17T01:33:33.646Z,8.10
2018-04-17T01:34:33.645Z,7.20
2018-04-17T01:35:33.624Z,7.50
2018-04-17T01:36:33.630Z,7.80
2018-04-17T01:37:33.606Z,7.00
2018-04-17T01:38:33.597Z,7.20
2018-04-17T01:39:33.578Z,7.40
2018-04-17T01:40:33.572Z,10.50
2018-04-17T01:41:33.561Z,7.90
2018-04-17T01:42:33.547Z,7.90
2018-04-17T01:43:33.535Z,7.80
2018-04-17T01:44:33.525Z,7.00
2018-04-17T01:45:33.523Z,7.80
2018-04-17T01:46:33.504Z,6.80
2018-04-17T01:47:33.495Z,6.80
2018-04-17T01:48:33.488Z,8.10
2018-04-17T01:49:33.484Z,8.40
2018-04-17T01:50:33.466Z,8.30
2018-04-17T01:51:33.449Z,8.20
2018-04-17T01:52:33.439Z,7.70
2018-04-17T01:53:33.433Z,7.90
2018-04-17T01:54:33.419Z,7.40
2018-04-17T01:55:33.408Z,7.90
2018-04-17T01:56:33.402Z,7.20
2018-04-17T01:57:33.386Z,7.80
2018-04-17T01:58:33.379Z,7.10
2018-04-17T01:59:33.364Z,8.90
2018-04-17T02:00:33.353Z,7.90
2018-04-17T02:01:33.362Z,7.40
2018-04-17T02:02:33.341Z,8.30
2018-04-17T02:03:33.319Z,9.10
2018-04-17T02:04:33.310Z,8.30
2018-04-17T02:05:33.301Z,7.50
2018-04-17T02:06:33.297Z,8.80
2018-04-17T02:07:33.277Z,9.10
2018-04-17T02:08:33.266Z,7.90
2018-04-17T02:09:33.256Z,8.20
2018-04-17T02:10:33.247Z,6.90
2018-04-17T02:11:33.239Z,8.00
2018-04-17T02:12:33.223Z,9.90
2018-04-17T02:13:33.211Z,7.20
2018-04-17T02:14:33.201Z,7.10
2018-04-17T02:15:33.188Z,8.10
2018-04-17T02:16:33.183Z,6.90
2018-04-17T02:17:33.175Z,8.30
2018-04-17T02:18:33.155Z,8.80
2018-04-17T02:19:33.143Z,8.30
2018-04-17T02:20:33.139Z,8.00
2018-04-17T02:21:33.125Z,8.20
2018-04-17T02:22:33.111Z,9.10
2018-04-17T02:23:33.105Z,8.30
2018-04-17T02:24:33.087Z,9.40
2018-04-17T02:25:33.077Z,7.70
2018-04-17T02:26:33.067Z,9.40
2018-04-17T02:27:33.055Z,7.40
2018-04-17T02:28:33.050Z,8.40
2018-04-17T02:29:33.040Z,7.80
2018-04-17T02:30:33.029Z,7.00
2018-04-17T02:31:33.011Z,9.10
2018-04-17T02:32:33.000Z,8.30
2018-04-17T02:33:32.995Z,7.90
2018-04-17T02:34:32.976Z,8.50
2018-04-17T02:35:32.969Z,8.10
2018-04-17T02:36:32.956Z,8.20
2018-04-17T02:37:32.948Z,7.90
2018-04-17T02:38:32.946Z,8.40
2018-04-17T02:39:32.921Z,7.80
2018-04-17T02:40:32.909Z,7.70
2018-04-17T02:41:32.908Z,8.90
2018-04-17T02:42:32.893Z,8.40
2018-04-17T02:43:32.875Z,7.60
2018-04-17T02:44:32.864Z,7.50
2018-04-17T02:45:32.853Z,8.10
2018-04-17T02:46:32.843Z,8.10
2018-04-17T02:47:32.845Z,8.10
2018-04-17T02:48:32.820Z,8.30
2018-04-17T02:49:32.807Z,9.10
2018-04-17T02:50:32.797Z,7.00
2018-04-17T02:51:32.785Z,8.60
2018-04-17T02:52:32.774Z,10.70
2018-04-17T02:53:32.767Z,10.00
2018-04-17T02:54:32.753Z,9.40
2018-04-17T02:55:32.745Z,8.30
2018-04-17T02:56:32.739Z,7.40
2018-04-17T02:57:32.725Z,7.00
2018-04-17T02:58:32.709Z,7.60
2018-04-17T02:59:32.694Z,6.90
2018-04-17T03:00:32.682Z,7.90
2018-04-17T03:01:32.673Z,8.30
2018-04-17T03:02:32.665Z,8.40
2018-04-17T03:03:32.647Z,7.70
2018-04-17T03:04:32.636Z,7.40
2018-04-17T03:05:32.626Z,7.80
2018-04-17T03:06:32.617Z,8.20
2018-04-17T03:07:32.601Z,8.00
2018-04-17T03:08:32.590Z,7.70
2018-04-17T03:09:32.578Z,8.30
2018-04-17T03:10:32.574Z,10.90
2018-04-17T03:11:32.557Z,8.60
2018-04-17T03:12:32.553Z,8.40
2018-04-17T03:13:32.538Z,8.70
2018-04-17T03:14:32.522Z,8.40
2018-04-17T03:15:32.510Z,8.20
2018-04-17T03:16:32.508Z,8.80
2018-04-17T03:17:32.493Z,7.70
2018-04-17T03:18:32.477Z,7.70
2018-04-17T03:19:32.464Z,8.10
2018-04-17T03:20:32.458Z,8.50
2018-04-17T03:21:32.441Z,8.30
2018-04-17T03:22:32.434Z,7.30
2018-04-17T03:23:32.421Z,8.90
2018-04-17T03:24:32.407Z,9.50
2018-04-17T03:25:32.406Z,9.50
2018-04-17T03:26:32.386Z,8.20
2018-04-17T03:27:32.374Z,8.30
2018-04-17T03:28:32.363Z,8.60
2018-04-17T03:29:32.356Z,8.70
2018-04-17T03:30:32.339Z,8.70
2018-04-17T03:31:32.329Z,8.90
2018-04-17T03:32:32.314Z,9.00
2018-04-17T03:33:32.304Z,8.90
2018-04-17T03:34:32.297Z,9.30
2018-04-17T03:35:32.285Z,9.80
2018-04-17T03:36:32.268Z,9.40
2018-04-17T03:37:32.265Z,9.50
2018-04-17T03:38:32.257Z,9.10
2018-04-17T03:39:32.238Z,9.30
2018-04-17T03:40:32.225Z,9.50
2018-04-17T03:41:32.213Z,10.30
2018-04-17T03:42:32.199Z,8.90
2018-04-17T03:43:32.186Z,8.70
2018-04-17T03:44:32.182Z,9.30
2018-04-17T03:45:32.162Z,9.10
2018-04-17T03:46:32.160Z,8.80
2018-04-17T03:47:32.139Z,9.00
2018-04-17T03:48:32.127Z,9.80
2018-04-17T03:49:32.121Z,10.60
2018-04-17T03:50:32.108Z,10.20
2018-04-17T03:51:32.091Z,9.60
2018-04-17T03:52:32.080Z,9.30
2018-04-17T03:53:32.067Z,9.90
2018-04-17T03:54:32.059Z,10.50
2018-04-17T03:55:32.045Z,10.70
2018-04-17T03:56:32.031Z,9.20
2018-04-17T03:57:32.023Z,9.80
2018-04-17T03:58:32.015Z,11.30
2018-04-17T03:59:31.998Z,10.20
2018-04-17T04:00:31.986Z,10.90
2018-04-17T04:01:31.975Z,11.20
2018-04-17T04:02:31.971Z,11.90
2018-04-17T04:03:31.951Z,10.50
2018-04-17T04:04:31.945Z,11.10
2018-04-17T04:05:31.934Z,11.00
2018-04-17T04:06:31.916Z,11.80
2018-04-17T04:07:31.903Z,11.30
2018-04-17T04:08:31.894Z,12.20
2018-04-17T04:09:31.886Z,10.10
2018-04-17T04:10:31.878Z,10.20
2018-04-17T04:11:31.857Z,12.70
2018-04-17T04:12:31.847Z,13.30
2018-04-17T04:13:31.834Z,13.20
2018-04-17T04:14:31.825Z,14.40
2018-04-17T04:15:31.811Z,13.90
2018-04-17T04:16:31.802Z,13.20
2018-04-17T04:17:31.792Z,13.60
2018-04-17T04:18:31.783Z,12.60
2018-04-17T04:19:31.763Z,15.00
2018-04-17T04:20:31.755Z,14.30
2018-04-17T04:21:31.745Z,13.60
2018-04-17T04:22:31.726Z,10.50
2018-04-17T04:23:31.714Z,13.50
2018-04-17T04:24:31.703Z,13.40
2018-04-17T04:25:31.689Z,13.50
2018-04-17T04:26:31.687Z,16.40
2018-04-17T04:27:31.736Z,13.80
2018-04-17T04:28:31.654Z,12.80
2018-04-17T04:29:31.647Z,13.20
2018-04-17T04:30:31.642Z,12.70
2018-04-17T04:31:31.626Z,13.40
2018-04-17T04:32:31.606Z,11.70
2018-04-17T04:33:31.598Z,10.80
2018-04-17T04:34:31.584Z,13.00
2018-04-17T04:35:31.573Z,10.30
2018-04-17T04:36:31.569Z,14.00
2018-04-17T04:37:31.549Z,14.30
2018-04-17T04:38:31.537Z,13.10
2018-04-17T04:39:31.522Z,9.60
2018-04-17T04:40:31.510Z,14.40
2018-04-17T04:41:31.503Z,12.90
2018-04-17T04:42:31.493Z,13.50
2018-04-17T04:43:31.474Z,11.10
2018-04-17T04:44:31.463Z,12.60
2018-04-17T04:45:31.458Z,10.80
2018-04-17T04:46:31.444Z,12.80
2018-04-17T04:47:31.427Z,12.40
2018-04-17T04:48:31.415Z,12.10
2018-04-17T04:49:31.402Z,11.70
2018-04-17T04:50:31.401Z,13.10
2018-04-17T04:51:31.378Z,11.50
2018-04-17T04:52:31.367Z,12.90
2018-04-17T04:53:31.356Z,13.00
2018-04-17T04:54:31.351Z,11.60
2018-04-17T04:55:31.334Z,11.80
2018-04-17T04:56:31.317Z,12.30
2018-04-17T04:57:31.312Z,13.70
2018-04-17T04:58:31.294Z,17.90
2018-04-17T04:59:31.282Z,15.60
2018-04-17T05:00:31.270Z,13.70
2018-04-17T05:01:31.266Z,13.10
2018-04-17T05:02:31.247Z,13.20
2018-04-17T05:03:31.238Z,12.50
2018-04-17T05:04:31.221Z,11.80
2018-04-17T05:05:31.210Z,15.50
2018-04-17T05:06:31.198Z,11.80
2018-04-17T05:07:31.185Z,14.60
2018-04-17T05:08:31.180Z,16.80
2018-04-17T05:09:31.162Z,16.30
2018-04-17T05:10:31.155Z,24.00
2018-04-17T05:11:31.143Z,21.60
2018-04-17T05:12:31.127Z,18.90
2018-04-17T05:13:31.127Z,22.10
2018-04-17T05:14:31.109Z,18.60
2018-04-17T05:15:31.095Z,18.80
2018-04-17T05:16:31.077Z,21.00
2018-04-17T05:17:31.072Z,40.10
2018-04-17T05:18:31.118Z,25.60
2018-04-17T05:19:31.047Z,17.70
2018-04-17T05:20:31.033Z,26.50
2018-04-17T05:21:31.029Z,268.70
2018-04-17T05:22:31.014Z,287.80
2018-04-17T05:23:30.996Z,212.30
2018-04-17T05:24:30.993Z,26.30
2018-04-17T05:25:30.973Z,22.30
2018-04-17T05:26:30.962Z,25.10
2018-04-17T05:27:30.948Z,20.70
2018-04-17T05:28:30.943Z,26.90
2018-04-17T05:29:30.927Z,240.90
2018-04-17T05:30:30.920Z,127.40
2018-04-17T05:31:30.902Z,90.60
2018-04-17T05:32:30.894Z,22.30
2018-04-17T05:33:30.881Z,18.40
2018-04-17T05:34:30.869Z,27.10
2018-04-17T05:35:30.856Z,57.50
2018-04-17T05:36:30.842Z,50.00
2018-04-17T05:37:30.833Z,19.50
2018-04-17T05:38:30.822Z,18.40
2018-04-17T05:39:30.808Z,18.00
2018-04-17T05:40:30.802Z,33.60
2018-04-17T05:41:30.784Z,23.60
2018-04-17T05:42:30.778Z,30.10
2018-04-17T05:43:30.760Z,52.10
2018-04-17T05:44:30.751Z,38.30
2018-04-17T05:45:30.740Z,48.80
2018-04-17T05:46:30.728Z,16.40
2018-04-17T05:47:30.716Z,16.10
2018-04-17T05:48:30.705Z,19.50
2018-04-17T05:49:30.701Z,17.00
2018-04-17T05:50:30.690Z,15.50
2018-04-17T05:51:30.671Z,15.60
2018-04-17T05:52:30.659Z,17.30
2018-04-17T05:53:30.651Z,21.10
2018-04-17T05:54:30.636Z,17.60
2018-04-17T05:55:30.628Z,20.30
2018-04-17T05:56:30.619Z,16.70
2018-04-17T05:57:30.603Z,18.30
2018-04-17T05:58:30.594Z,14.20
2018-04-17T05:59:30.581Z,12.90
2018-04-17T06:00:30.570Z,13.00
2018-04-17T06:01:30.562Z,15.50
2018-04-17T06:02:30.549Z,12.90
2018-04-17T06:03:30.546Z,15.30
2018-04-17T06:04:30.527Z,12.80
2018-04-17T06:05:30.519Z,10.80
2018-04-17T06:06:30.505Z,15.80
2018-04-17T06:07:30.494Z,12.10
2018-04-17T06:08:30.492Z,11.40
2018-04-17T06:09:30.480Z,12.40
2018-04-17T06:10:30.469Z,11.10
2018-04-17T06:11:30.452Z,11.10
2018-04-17T06:12:30.443Z,14.60
2018-04-17T06:13:30.435Z,10.80
2018-04-17T06:14:30.430Z,11.90
2018-04-17T06:15:30.412Z,13.00
2018-04-17T06:16:30.404Z,12.60
2018-04-17T06:17:30.394Z,12.00
2018-04-17T06:18:30.384Z,11.90
2018-04-17T06:19:30.377Z,13.80
2018-04-17T06:20:30.366Z,13.50
2018-04-17T06:21:30.354Z,12.10
2018-04-17T06:22:30.343Z,14.60
2018-04-17T06:23:30.333Z,12.80
2018-04-17T06:24:30.331Z,15.40
2018-04-17T06:25:30.318Z,15.00
2018-04-17T06:26:30.306Z,12.80
2018-04-17T06:27:30.300Z,16.60
2018-04-17T06:28:30.292Z,14.50
2018-04-17T06:29:30.275Z,15.90
2018-04-17T06:30:30.266Z,14.00
2018-04-17T06:31:30.260Z,16.50
2018-04-17T06:32:30.248Z,16.10
2018-04-17T06:33:30.237Z,13.90
2018-04-17T06:34:30.228Z,17.30
2018-04-17T06:35:30.221Z,16.20
2018-04-17T06:36:30.210Z,15.00
2018-04-17T06:37:30.202Z,22.10
2018-04-17T06:38:30.197Z,16.90
2018-04-17T06:39:30.187Z,16.70
2018-04-17T06:40:30.179Z,17.80
2018-04-17T06:41:30.163Z,17.40
2018-04-17T06:42:30.161Z,14.00
2018-04-17T06:43:30.147Z,18.70
2018-04-17T06:44:30.136Z,14.90
2018-04-17T06:45:30.127Z,16.90
2018-04-17T06:46:30.118Z,16.00
2018-04-17T06:47:30.177Z,16.70
2018-04-17T06:48:30.102Z,15.30
2018-04-17T06:49:30.098Z,18.00
2018-04-17T06:50:30.086Z,20.30
2018-04-17T06:51:30.074Z,18.10
2018-04-17T06:52:30.066Z,17.10
2018-04-17T06:53:30.058Z,14.60
2018-04-17T06:54:30.056Z,14.30
2018-04-17T06:55:30.046Z,14.70
2018-04-17T06:56:30.035Z,15.30
2018-04-17T06:57:30.025Z,13.30
2018-04-17T06:58:30.017Z,13.50
2018-04-17T06:59:30.005Z,14.30
2018-04-17T07:00:30.004Z,13.10
2018-04-17T07:01:29.992Z,14.60
2018-04-17T07:02:29.983Z,11.60
2018-04-17T07:03:29.979Z,12.10
2018-04-17T07:04:29.967Z,12.10
2018-04-17T07:05:29.958Z,13.40
2018-04-17T07:06:29.949Z,12.60
2018-04-17T07:07:29.945Z,9.60
2018-04-17T07:08:29.930Z,11.60
2018-04-17T07:09:29.924Z,10.40
2018-04-17T07:10:29.922Z,9.70
2018-04-17T07:11:29.909Z,11.50
2018-04-17T07:12:29.898Z,10.60
2018-04-17T07:13:29.897Z,11.70
2018-04-17T07:14:29.883Z,12.00
2018-04-17T07:15:29.881Z,10.80
2018-04-17T07:16:29.867Z,11.20
2018-04-17T07:17:29.865Z,11.10
2018-04-17T07:18:29.857Z,11.80
2018-04-17T07:19:29.845Z,9.80
2018-04-17T07:20:29.837Z,10.80
2018-04-17T07:21:29.834Z,12.90
2018-04-17T07:22:29.844Z,12.60
2018-04-17T07:23:29.822Z,12.80
2018-04-17T07:24:29.806Z,13.20
2018-04-17T07:25:29.806Z,11.00
2018-04-17T07:26:29.792Z,11.70
2018-04-17T07:27:29.784Z,11.30
2018-04-17T07:28:29.780Z,19.60
2018-04-17T07:29:29.819Z,13.50
2018-04-17T07:30:29.763Z,11.30
2018-04-17T07:31:29.754Z,12.00
2018-04-17T07:32:29.750Z,11.90
2018-04-17T07:33:29.736Z,13.30
2018-04-17T07:34:29.737Z,12.20
2018-04-17T07:35:29.721Z,11.40
2018-04-17T07:36:29.714Z,11.60
2018-04-17T07:37:29.705Z,13.40
2018-04-17T07:38:29.701Z,12.10
2018-04-17T07:39:29.692Z,11.20
2018-04-17T07:40:29.695Z,12.00
2018-04-17T07:41:29.679Z,13.20
2018-04-17T07:42:29.669Z,13.60
2018-04-17T07:43:29.663Z,13.20
2018-04-17T07:44:29.660Z,14.90
2018-04-17T07:45:29.647Z,15.70
2018-04-17T07:46:29.649Z,16.00
2018-04-17T07:47:29.698Z,17.80
2018-04-17T07:48:29.625Z,15.50
2018-04-17T07:49:29.617Z,13.20
2018-04-17T07:50:29.611Z,14.50
2018-04-17T07:51:29.612Z,14.90
2018-04-17T07:52:29.596Z,14.00
2018-04-17T07:53:29.589Z,14.50
2018-04-17T07:54:29.586Z,14.90
2018-04-17T07:55:29.575Z,16.20
2018-04-17T07:56:29.569Z,14.50
2018-04-17T07:57:29.564Z,16.40
2018-04-17T07:58:29.555Z,16.40
2018-04-17T07:59:29.548Z,14.60
2018-04-17T08:00:29.540Z,20.20
2018-04-17T08:01:29.542Z,20.60
2018-04-17T08:02:29.533Z,17.40
2018-04-17T08:03:29.520Z,16.40
2018-04-17T08:04:29.517Z,19.70
2018-04-17T08:05:29.514Z,19.70
2018-04-17T08:06:29.499Z,18.90
2018-04-17T08:07:29.500Z,16.80
2018-04-17T08:08:29.486Z,19.20
2018-04-17T08:09:29.482Z,17.70
2018-04-17T08:10:29.474Z,18.00
2018-04-17T08:11:29.469Z,18.10
2018-04-17T08:12:29.468Z,15.90
2018-04-17T08:13:29.455Z,13.70
2018-04-17T08:14:29.448Z,16.30
2018-04-17T08:15:29.441Z,19.30
2018-04-17T08:16:29.440Z,16.10
2018-04-17T08:17:29.428Z,15.20
2018-04-17T08:18:29.423Z,17.10
2018-04-17T08:19:29.419Z,17.20
2018-04-17T08:20:29.410Z,16.60
2018-04-17T08:21:29.404Z,17.30
2018-04-17T08:22:29.399Z,18.30
2018-04-17T08:23:29.393Z,14.10
2018-04-17T08:24:29.386Z,17.60
2018-04-17T08:25:29.379Z,16.70
2018-04-17T08:26:29.374Z,14.60
2018-04-17T08:27:29.366Z,18.10
2018-04-17T08:28:29.363Z,18.70
2018-04-17T08:29:29.355Z,21.80
2018-04-17T08:30:29.350Z,16.20
2018-04-17T08:31:29.344Z,19.70
2018-04-17T08:32:29.338Z,17.30
2018-04-17T08:33:29.332Z,20.00
2018-04-17T08:34:29.328Z,21.20
2018-04-17T08:35:29.321Z,17.50
2018-04-17T08:36:29.321Z,16.40
2018-04-17T08:37:29.315Z,17.90
2018-04-17T08:38:29.304Z,20.70
2018-04-17T08:39:29.299Z,16.70
2018-04-17T08:40:29.297Z,16.20
2018-04-17T08:41:29.290Z,19.60
2018-04-17T08:42:29.287Z,18.50
2018-04-17T08:43:29.280Z,16.30
2018-04-17T08:44:29.269Z,17.80
2018-04-17T08:45:29.267Z,18.60
2018-04-17T08:46:29.266Z,18.30
2018-04-17T08:47:29.253Z,19.70
2018-04-17T08:48:29.247Z,22.00
2018-04-17T08:49:29.249Z,16.50
2018-04-17T08:50:29.243Z,17.50
2018-04-17T08:51:29.238Z,19.90
2018-04-17T08:52:29.231Z,18.70
2018-04-17T08:53:29.219Z,17.40
2018-04-17T08:54:29.236Z,20.30
2018-04-17T08:55:29.209Z,17.00
2018-04-17T08:56:29.203Z,18.40
2018-04-17T08:57:29.204Z,18.00
2018-04-17T08:58:29.193Z,19.80
2018-04-17T08:59:29.195Z,18.00
2018-04-17T09:00:29.183Z,16.90
2018-04-17T09:01:29.184Z,16.50
2018-04-17T09:02:29.177Z,18.40
2018-04-17T09:03:29.166Z,24.00
2018-04-17T09:04:29.160Z,18.70
2018-04-17T09:05:29.153Z,21.60
2018-04-17T09:06:29.154Z,17.40
2018-04-17T09:07:29.153Z,19.30
2018-04-17T09:08:29.145Z,18.10
2018-04-17T09:09:29.139Z,20.50
2018-04-17T09:10:29.135Z,21.50
2018-04-17T09:11:29.122Z,22.20
2018-04-17T09:12:29.121Z,20.20
2018-04-17T09:13:29.122Z,19.80
2018-04-17T09:14:29.107Z,18.20
2018-04-17T09:15:29.109Z,20.80
2018-04-17T09:16:29.100Z,18.50
2018-04-17T09:17:29.091Z,21.10
2018-04-17T09:18:29.088Z,19.20
2018-04-17T09:19:29.088Z,18.90
2018-04-17T09:20:29.079Z,18.60
2018-04-17T09:21:29.073Z,22.70
2018-04-17T09:22:29.076Z,20.40
2018-04-17T09:23:29.063Z,20.60
2018-04-17T09:24:29.059Z,19.20
2018-04-17T09:25:29.057Z,21.20
2018-04-17T09:26:29.056Z,24.00
2018-04-17T09:27:29.058Z,20.30
2018-04-17T09:28:29.041Z,20.30
2018-04-17T09:29:29.048Z,20.10
2018-04-17T09:30:29.033Z,18.60
2018-04-17T09:31:29.031Z,19.70
2018-04-17T09:32:29.023Z,17.90
2018-04-17T09:33:29.020Z,19.40
2018-04-17T09:34:29.076Z,19.20
2018-04-17T09:35:29.010Z,19.00
2018-04-17T09:36:29.006Z,17.60
2018-04-17T09:37:29.049Z,17.10
2018-04-17T09:38:28.997Z,17.40
2018-04-17T09:39:28.996Z,22.70
2018-04-17T09:40:28.989Z,19.70
2018-04-17T09:41:28.984Z,23.60
2018-04-17T09:42:29.032Z,17.20
2018-04-17T09:43:28.983Z,16.60
2018-04-17T09:44:28.974Z,12.60
2018-04-17T09:45:28.968Z,7.00
2018-04-17T09:46:28.967Z,7.20
2018-04-17T09:47:28.958Z,8.30
2018-04-17T09:48:28.955Z,7.20
2018-04-17T09:49:28.952Z,7.70
2018-04-17T09:50:28.995Z,9.70
2018-04-17T09:51:28.944Z,10.20
2018-04-17T09:52:28.939Z,8.90
2018-04-17T09:53:28.934Z,7.60
2018-04-17T09:54:28.931Z,5.70
2018-04-17T09:55:28.932Z,6.30
2018-04-17T09:56:28.922Z,5.90
2018-04-17T09:57:28.959Z,6.20
2018-04-17T09:58:28.916Z,7.50
2018-04-17T09:59:28.917Z,5.90
2018-04-17T10:00:28.914Z,4.80
2018-04-17T10:01:28.902Z,5.50
2018-04-17T10:02:28.898Z,5.90
2018-04-17T10:03:28.892Z,6.60
2018-04-17T10:04:28.890Z,6.00
2018-04-17T10:05:28.888Z,7.30
2018-04-17T10:06:28.878Z,5.80
2018-04-17T10:07:28.874Z,5.10
2018-04-17T10:08:28.871Z,6.20
2018-04-17T10:09:28.870Z,5.20
2018-04-17T10:10:28.873Z,9.70
2018-04-17T10:11:28.861Z,6.30
2018-04-17T10:12:28.850Z,5.30
2018-04-17T10:13:28.854Z,6.60
2018-04-17T10:14:28.844Z,6.40
2018-04-17T10:15:28.850Z,6.30
2018-04-17T10:16:28.833Z,7.50
2018-04-17T10:17:28.895Z,5.70
2018-04-17T10:18:28.824Z,6.90
2018-04-17T10:19:28.820Z,5.80
2018-04-17T10:20:28.821Z,7.10
2018-04-17T10:21:28.816Z,6.90
2018-04-17T10:22:28.864Z,8.30
2018-04-17T10:23:28.802Z,8.50
2018-04-17T10:24:28.797Z,7.80
2018-04-17T10:25:28.796Z,6.50
2018-04-17T10:26:28.790Z,8.10
2018-04-17T10:27:28.788Z,6.80
2018-04-17T10:28:28.786Z,7.40
2018-04-17T10:29:28.777Z,8.00
2018-04-17T10:30:28.771Z,7.30
2018-04-17T10:31:28.765Z,7.40
2018-04-17T10:32:28.767Z,10.10
2018-04-17T10:33:28.768Z,6.70
2018-04-17T10:34:28.755Z,7.40
2018-04-17T10:35:28.746Z,9.10
2018-04-17T10:36:28.743Z,10.60
2018-04-17T10:37:28.741Z,13.30
2018-04-17T10:38:28.733Z,7.20
2018-04-17T10:39:28.729Z,7.90
2018-04-17T10:40:28.724Z,7.60
2018-04-17T10:41:28.720Z,8.40
2018-04-17T10:42:28.727Z,10.40
2018-04-17T10:43:28.710Z,7.50
2018-04-17T10:44:28.707Z,8.40
2018-04-17T10:45:28.710Z,8.60
2018-04-17T10:46:28.713Z,12.80
2018-04-17T10:47:28.703Z,8.90
2018-04-17T10:48:28.692Z,9.80
2018-04-17T10:49:28.686Z,8.10
2018-04-17T10:50:28.684Z,7.30
2018-04-17T10:51:28.676Z,10.40
2018-04-17T10:52:28.674Z,8.90
2018-04-17T10:53:28.668Z,9.10
2018-04-17T10:54:28.664Z,10.10
2018-04-17T10:55:28.660Z,10.30
2018-04-17T10:56:28.660Z,11.10
2018-04-17T10:57:28.651Z,8.00
2018-04-17T10:58:28.649Z,10.60
2018-04-17T10:59:28.642Z,9.10
2018-04-17T11:00:28.637Z,10.00
2018-04-17T11:01:28.632Z,10.40
2018-04-17T11:02:28.634Z,11.30
2018-04-17T11:03:28.633Z,8.40
2018-04-17T11:04:28.620Z,8.90
2018-04-17T11:05:28.623Z,10.90
2018-04-17T11:06:28.614Z,9.90
2018-04-17T11:07:28.608Z,11.00
2018-04-17T11:08:28.604Z,8.30
2018-04-17T11:09:28.605Z,8.50
2018-04-17T11:10:28.634Z,8.20
2018-04-17T11:11:28.591Z,9.80
2018-04-17T11:12:28.588Z,9.40
2018-04-17T11:13:28.585Z,10.20
2018-04-17T11:14:28.579Z,14.00
2018-04-17T11:15:28.577Z,8.70
2018-04-17T11:16:28.577Z,10.50
2018-04-17T11:17:28.566Z,9.90
2018-04-17T11:18:28.571Z,9.50
2018-04-17T11:19:28.560Z,11.20
2018-04-17T11:20:28.556Z,8.60
2018-04-17T11:21:28.560Z,9.50
2018-04-17T11:22:28.548Z,10.90
2018-04-17T11:23:28.548Z,11.60
2018-04-17T11:24:28.537Z,9.20
2018-04-17T11:25:28.536Z,11.50
2018-04-17T11:26:28.534Z,8.10
2018-04-17T11:27:28.529Z,9.50
2018-04-17T11:28:28.525Z,8.20
2018-04-17T11:29:28.518Z,9.90
2018-04-17T11:30:28.522Z,7.40
2018-04-17T11:31:28.514Z,9.60
2018-04-17T11:32:28.509Z,7.90
2018-04-17T11:33:28.504Z,11.30
2018-04-17T11:34:28.511Z,8.40
2018-04-17T11:35:28.499Z,9.30
2018-04-17T11:36:28.495Z,10.70
2018-04-17T11:37:28.487Z,7.50
2018-04-17T11:38:28.480Z,7.80
2018-04-17T11:39:28.483Z,7.20
2018-04-17T11:40:28.477Z,8.90
2018-04-17T11:41:28.468Z,10.40
2018-04-17T11:42:28.471Z,8.80
2018-04-17T11:43:28.462Z,9.20
2018-04-17T11:44:28.456Z,14.30
2018-04-17T11:45:28.452Z,9.40
2018-04-17T11:46:28.453Z,9.30
2018-04-17T11:47:28.443Z,9.90
2018-04-17T11:48:28.440Z,9.80
2018-04-17T11:49:28.441Z,9.60
2018-04-17T11:50:28.434Z,9.90
2018-04-17T11:51:28.428Z,9.30
2018-04-17T11:52:28.427Z,10.30
2018-04-17T11:53:28.424Z,8.10
2018-04-17T11:54:28.424Z,7.50
2018-04-17T11:55:28.414Z,9.00
2018-04-17T11:56:28.416Z,8.90
2018-04-17T11:57:28.416Z,8.80
2018-04-17T11:58:28.408Z,8.50
2018-04-17T11:59:28.397Z,8.40
2018-04-17T12:00:28.401Z,8.10
2018-04-17T12:01:28.397Z,9.10
2018-04-17T12:02:28.394Z,10.30
2018-04-17T12:03:28.385Z,7.40
2018-04-17T12:04:28.379Z,9.60
2018-04-17T12:05:28.377Z,10.80
2018-04-17T12:06:28.375Z,8.60
2018-04-17T12:07:28.370Z,12.60
2018-04-17T12:08:28.368Z,11.00
2018-04-17T12:09:28.363Z,8.60
2018-04-17T12:10:28.364Z,8.50
2018-04-17T12:11:28.356Z,8.30
2018-04-17T12:12:28.354Z,10.10
2018-04-17T12:13:28.348Z,9.30
2018-04-17T12:14:28.347Z,8.10
2018-04-17T12:15:28.342Z,9.70
2018-04-17T12:16:28.338Z,9.10
2018-04-17T12:17:28.335Z,8.00
2018-04-17T12:18:28.339Z,7.80
2018-04-17T12:19:28.326Z,9.50
2018-04-17T12:20:28.386Z,10.40
2018-04-17T12:21:28.320Z,8.60
2018-04-17T12:22:28.324Z,7.10
2018-04-17T12:23:28.315Z,7.60
2018-04-17T12:24:28.310Z,8.10
2018-04-17T12:25:28.308Z,6.40
2018-04-17T12:26:28.306Z,6.60
2018-04-17T12:27:28.305Z,5.90
2018-04-17T12:28:28.301Z,6.80
2018-04-17T12:29:28.296Z,6.70
2018-04-17T12:30:28.289Z,7.10
2018-04-17T12:31:28.293Z,9.20
2018-04-17T12:32:28.282Z,9.60
2018-04-17T12:33:28.279Z,7.30
2018-04-17T12:34:28.330Z,7.60
2018-04-17T12:35:28.273Z,8.40
2018-04-17T12:36:28.269Z,7.50
2018-04-17T12:37:28.263Z,7.30
2018-04-17T12:38:28.262Z,5.50
2018-04-17T12:39:28.258Z,9.90
2018-04-17T12:40:28.258Z,7.60
2018-04-17T12:41:28.261Z,8.00
2018-04-17T12:42:28.248Z,7.20
2018-04-17T12:43:28.243Z,5.30
2018-04-17T12:44:28.255Z,6.10
2018-04-17T12:45:28.237Z,6.60
2018-04-17T12:46:28.237Z,8.20
2018-04-17T12:47:28.238Z,6.50
2018-04-17T12:48:28.228Z,5.30
2018-04-17T12:49:28.230Z,5.60
2018-04-17T12:50:28.222Z,5.00
2018-04-17T12:51:28.223Z,5.10
2018-04-17T12:52:28.216Z,5.40
2018-04-17T12:53:28.212Z,6.30
2018-04-17T12:54:28.216Z,8.20
2018-04-17T12:55:28.204Z,7.70
2018-04-17T12:56:28.207Z,10.20
2018-04-17T12:57:28.201Z,5.80
2018-04-17T12:58:28.204Z,4.40
2018-04-17T12:59:28.199Z,4.70
2018-04-17T13:00:28.196Z,5.50
2018-04-17T13:01:28.196Z,6.20
2018-04-17T13:02:28.183Z,4.40
2018-04-17T13:03:28.177Z,5.70
2018-04-17T13:04:28.173Z,3.90
2018-04-17T13:05:28.171Z,3.50